createdAt,value
2023-04-20T00:01:10.811Z,8.18
2023-04-20T00:03:38.646Z,8.27
2023-04-20T00:06:06.845Z,8.22
2023-04-20T00:08:34.565Z,8.31
2023-04-20T00:11:02.257Z,8.32
2023-04-20T00:13:29.928Z,8.21
2023-04-20T00:15:57.512Z,8.25
2023-04-20T00:18:26.538Z,8.20
2023-04-20T00:20:54.378Z,8.25
2023-04-20T00:23:21.950Z,8.17
2023-04-20T00:25:51.619Z,8.00
2023-04-20T00:28:19.241Z,8.01
2023-04-20T00:30:46.888Z,7.90
2023-04-20T00:33:14.581Z,7.93
2023-04-20T00:35:43.525Z,8.09
2023-04-20T00:38:11.369Z,8.12
2023-04-20T00:40:39.019Z,7.93
2023-04-20T00:43:12.831Z,7.78
2023-04-20T00:45:43.128Z,7.85
2023-04-20T00:48:10.878Z,7.98
2023-04-20T00:50:39.400Z,8.06
2023-04-20T00:53:09.084Z,8.16
2023-04-20T00:55:38.564Z,8.18
2023-04-20T00:58:06.768Z,8.15
2023-04-20T01:00:35.095Z,8.08
2023-04-20T01:03:02.872Z,8.20
2023-04-20T01:05:30.907Z,8.21
2023-04-20T01:07:58.488Z,8.24
2023-04-20T01:10:27.420Z,8.28
2023-04-20T01:12:55.025Z,8.30
2023-04-20T01:15:22.691Z,8.08
2023-04-20T01:17:50.369Z,8.12
2023-04-20T01:20:17.961Z,7.90
2023-04-20T01:22:48.604Z,7.83
2023-04-20T01:25:16.990Z,7.91
2023-04-20T01:27:45.038Z,8.01
2023-04-20T01:30:13.545Z,7.90
2023-04-20T01:32:41.589Z,7.86
2023-04-20T01:35:10.453Z,7.84
2023-04-20T01:37:38.170Z,7.86
2023-04-20T01:40:10.210Z,7.80
2023-04-20T01:42:37.978Z,7.79
2023-04-20T01:45:06.207Z,7.81
2023-04-20T01:47:36.515Z,7.68
2023-04-20T01:50:04.615Z,7.67
2023-04-20T02:00:15.733Z,7.86
2023-04-20T02:02:43.566Z,7.84
2023-04-20T02:05:11.608Z,7.88
2023-04-20T02:07:39.277Z,7.77
2023-04-20T02:10:07.886Z,7.76
2023-04-20T02:12:35.521Z,7.70
2023-04-20T02:15:04.255Z,7.67
2023-04-20T02:17:33.938Z,7.58
2023-04-20T02:20:01.541Z,7.59
2023-04-20T02:22:29.197Z,7.63
2023-04-20T02:24:56.820Z,7.64
2023-04-20T02:27:24.366Z,7.53
2023-04-20T02:29:51.940Z,7.57
2023-04-20T02:32:19.884Z,7.46
2023-04-20T02:34:48.799Z,7.40
2023-04-20T02:37:16.450Z,7.44
2023-04-20T02:39:44.149Z,7.60
2023-04-20T02:42:12.325Z,7.62
2023-04-20T02:44:39.911Z,7.61
2023-04-20T02:47:07.469Z,7.54
2023-04-20T02:49:35.619Z,7.59
2023-04-20T02:52:05.075Z,7.66
2023-04-20T02:54:32.642Z,7.62
2023-04-20T02:57:00.784Z,7.66
2023-04-20T02:59:28.363Z,7.67
2023-04-20T03:01:56.042Z,7.54
2023-04-20T03:04:23.750Z,7.59
2023-04-20T03:06:51.471Z,7.50
2023-04-20T03:09:20.406Z,7.48
2023-04-20T03:11:47.994Z,7.46
2023-04-20T03:14:15.576Z,7.53
2023-04-20T03:16:43.489Z,7.56
2023-04-20T03:19:11.240Z,7.61
2023-04-20T03:21:38.822Z,7.67
2023-04-20T03:24:07.087Z,7.75
2023-04-20T03:26:36.340Z,7.78
2023-04-20T03:29:03.971Z,7.84
2023-04-20T03:31:31.578Z,7.86
2023-04-20T03:33:59.219Z,7.90
2023-04-20T03:36:28.208Z,7.86
2023-04-20T03:38:55.936Z,7.79
2023-04-20T03:41:23.593Z,7.70
2023-04-20T03:43:52.588Z,7.61
2023-04-20T03:46:22.023Z,7.66
2023-04-20T03:48:50.868Z,7.79
2023-04-20T03:51:18.535Z,7.92
2023-04-20T03:53:46.203Z,8.00
2023-04-20T03:56:13.886Z,7.92
2023-04-20T03:58:41.484Z,7.93
2023-04-20T04:01:13.170Z,7.95
2023-04-20T04:03:40.935Z,8.03
2023-04-20T04:06:08.800Z,8.07
2023-04-20T04:08:36.380Z,8.08
2023-04-20T04:11:03.971Z,8.06
2023-04-20T04:13:33.811Z,8.14
2023-04-20T04:16:02.243Z,8.18
2023-04-20T04:18:33.901Z,8.23
2023-04-20T04:21:01.603Z,8.25
2023-04-20T04:23:29.347Z,8.21
2023-04-20T04:25:58.728Z,8.09
2023-04-20T04:28:26.736Z,8.09
2023-04-20T04:30:54.348Z,8.11
2023-04-20T04:33:22.074Z,8.02
2023-04-20T04:35:51.010Z,8.00
2023-04-20T04:38:18.737Z,8.01
2023-04-20T04:40:46.781Z,7.96
2023-04-20T04:43:14.583Z,7.94
2023-04-20T04:45:42.512Z,7.99
2023-04-20T04:48:12.185Z,7.95
2023-04-20T04:50:40.330Z,7.84
2023-04-20T04:53:09.267Z,7.80
2023-04-20T04:55:36.879Z,7.70
2023-04-20T04:58:04.644Z,7.71
2023-04-20T05:00:32.452Z,7.70
2023-04-20T05:03:00.241Z,7.77
2023-04-20T05:05:28.280Z,7.89
2023-04-20T05:07:55.952Z,7.89
2023-04-20T05:10:24.970Z,7.90
2023-04-20T05:12:53.219Z,7.92
2023-04-20T05:15:20.839Z,7.92
2023-04-20T05:17:49.694Z,7.95
2023-04-20T05:20:19.056Z,8.01
2023-04-20T05:22:46.675Z,8.00
2023-04-20T05:25:14.424Z,7.89
2023-04-20T05:27:43.371Z,7.79
2023-04-20T05:30:19.619Z,7.82
2023-04-20T05:32:51.390Z,7.87
2023-04-20T05:35:19.818Z,7.92
2023-04-20T05:37:48.283Z,7.95
2023-04-20T05:40:16.136Z,7.89
2023-04-20T05:42:45.109Z,7.72
2023-04-20T05:45:12.893Z,7.74
2023-04-20T05:47:40.571Z,7.82
2023-04-20T05:50:11.274Z,7.74
2023-04-20T05:52:38.923Z,7.82
2023-04-20T05:55:07.256Z,7.93
2023-04-20T05:57:34.942Z,7.97
2023-04-20T06:00:04.915Z,8.01
2023-04-20T06:02:32.599Z,8.12
2023-04-20T06:05:00.936Z,8.12
2023-04-20T06:07:28.706Z,8.18
2023-04-20T06:09:57.250Z,8.22
2023-04-20T06:12:26.286Z,8.22
2023-04-20T06:14:54.439Z,8.27
2023-04-20T06:17:23.694Z,8.21
2023-04-20T06:19:51.490Z,8.25
2023-04-20T06:22:19.589Z,8.20
2023-04-20T06:24:47.328Z,8.18
2023-04-20T06:27:16.047Z,8.23
2023-04-20T06:29:43.664Z,8.11
2023-04-20T06:32:11.293Z,8.22
2023-04-20T06:34:40.316Z,8.27
2023-04-20T06:37:08.427Z,8.36
2023-04-20T06:39:36.644Z,8.28
2023-04-20T06:42:04.488Z,8.04
2023-04-20T06:44:32.083Z,8.16
2023-04-20T06:46:59.787Z,8.17
2023-04-20T06:49:27.517Z,8.02
2023-04-20T06:51:56.524Z,8.16
2023-04-20T06:54:24.111Z,8.16
2023-04-20T06:56:51.722Z,7.93
2023-04-20T06:59:20.386Z,7.96
2023-04-20T07:01:48.301Z,8.20
2023-04-20T07:04:16.303Z,8.28
2023-04-20T07:06:43.913Z,8.45
2023-04-20T07:09:12.796Z,8.49
2023-04-20T07:11:40.387Z,8.52
2023-04-20T07:14:07.945Z,8.40
2023-04-20T07:16:35.874Z,8.26
2023-04-20T07:19:03.532Z,8.10
2023-04-20T07:21:31.644Z,8.14
2023-04-20T07:23:59.349Z,8.24
2023-04-20T07:26:28.447Z,8.05
2023-04-20T07:28:56.017Z,8.02
2023-04-20T07:31:23.901Z,8.14
2023-04-20T07:33:51.555Z,8.05
2023-04-20T07:36:20.107Z,8.06
2023-04-20T07:38:47.731Z,8.30
2023-04-20T07:41:15.881Z,8.36
2023-04-20T07:43:45.520Z,8.48
2023-04-20T07:46:20.894Z,8.46
2023-04-20T07:48:48.913Z,8.62
2023-04-20T07:51:16.623Z,8.72
2023-04-20T07:53:44.905Z,8.70
2023-04-20T07:56:12.632Z,8.57
2023-04-20T07:58:40.824Z,8.58
2023-04-20T08:01:09.802Z,8.27
2023-04-20T08:03:37.885Z,8.22
2023-04-20T08:06:06.301Z,8.49
2023-04-20T08:08:34.194Z,8.54
2023-04-20T08:11:01.756Z,8.32
2023-04-20T08:13:29.448Z,8.56
2023-04-20T08:15:57.119Z,8.67
2023-04-20T08:18:26.068Z,8.79
2023-04-20T08:20:53.774Z,9.02
2023-04-20T08:23:27.457Z,9.28
2023-04-20T08:25:55.184Z,9.36
2023-04-20T08:28:33.305Z,9.46
2023-04-20T08:31:01.830Z,9.48
2023-04-20T08:33:31.061Z,9.23
2023-04-20T08:35:58.652Z,9.05
2023-04-20T08:38:33.746Z,9.13
2023-04-20T08:41:02.324Z,9.11
2023-04-20T08:43:30.011Z,9.03
2023-04-20T08:45:59.446Z,9.19
2023-04-20T08:48:28.855Z,9.30
2023-04-20T08:50:57.829Z,9.19
2023-04-20T08:53:25.428Z,9.12
2023-04-20T08:55:53.084Z,9.22
2023-04-20T08:58:21.015Z,9.14
2023-04-20T09:00:49.560Z,9.27
2023-04-20T09:03:27.597Z,9.49
2023-04-20T09:06:00.405Z,9.43
2023-04-20T09:08:35.913Z,9.12
2023-04-20T09:11:03.552Z,9.14
2023-04-20T09:13:31.155Z,9.12
2023-04-20T09:15:58.876Z,9.28
2023-04-20T09:18:26.489Z,9.39
2023-04-20T09:20:54.173Z,9.57
2023-04-20T09:23:23.153Z,9.20
2023-04-20T09:25:53.420Z,9.15
2023-04-20T09:28:21.706Z,9.36
2023-04-20T09:30:51.559Z,9.29
2023-04-20T09:33:19.528Z,9.22
2023-04-20T09:35:47.337Z,9.25
2023-04-20T09:38:18.101Z,9.44
2023-04-20T09:40:47.095Z,9.60
2023-04-20T09:43:19.514Z,9.71
2023-04-20T09:45:47.237Z,9.66
2023-04-20T09:48:18.754Z,9.43
2023-04-20T09:50:49.624Z,9.23
2023-04-20T09:53:19.812Z,9.44
2023-04-20T09:55:49.871Z,9.52
2023-04-20T09:58:19.173Z,9.80
2023-04-20T10:00:46.978Z,9.97
2023-04-20T10:03:17.908Z,10.12
2023-04-20T10:05:45.664Z,10.07
2023-04-20T10:08:13.359Z,9.83
2023-04-20T10:10:45.596Z,10.09
2023-04-20T10:13:16.011Z,10.14
2023-04-20T10:15:43.972Z,10.20
2023-04-20T10:18:19.924Z,10.09
2023-04-20T10:20:47.952Z,10.09
2023-04-20T10:23:18.381Z,10.14
2023-04-20T10:25:56.244Z,10.14
2023-04-20T10:28:26.222Z,10.33
2023-04-20T10:30:57.083Z,10.36
2023-04-20T10:33:24.706Z,10.49
2023-04-20T10:35:55.729Z,10.64
2023-04-20T10:38:31.106Z,10.60
2023-04-20T10:40:59.103Z,10.43
2023-04-20T10:43:28.064Z,10.48
2023-04-20T10:45:55.718Z,10.45
2023-04-20T10:48:23.471Z,10.38
2023-04-20T10:50:51.100Z,10.55
2023-04-20T10:53:20.364Z,10.45
2023-04-20T10:55:51.468Z,10.50
2023-04-20T10:58:23.292Z,10.54
2023-04-20T11:01:02.979Z,10.57
2023-04-20T11:03:32.259Z,10.88
2023-04-20T11:06:01.343Z,10.78
2023-04-20T11:08:40.134Z,10.89
2023-04-20T11:11:18.954Z,11.02
2023-04-20T11:13:46.722Z,11.13
2023-04-20T11:16:19.755Z,11.10
2023-04-20T11:18:51.341Z,11.00
2023-04-20T11:21:19.318Z,10.91
2023-04-20T11:23:47.307Z,10.88
2023-04-20T11:26:15.346Z,10.86
2023-04-20T11:28:56.043Z,10.77
2023-04-20T11:31:26.740Z,10.81
2023-04-20T11:33:54.630Z,10.94
2023-04-20T11:36:24.078Z,11.04
2023-04-20T11:38:52.073Z,11.21
2023-04-20T11:41:19.846Z,11.25
2023-04-20T11:43:48.936Z,11.24
2023-04-20T11:46:18.043Z,11.29
2023-04-20T11:48:47.966Z,11.63
2023-04-20T11:51:16.214Z,11.82
2023-04-20T11:53:43.984Z,11.92
2023-04-20T11:56:11.628Z,12.00
2023-04-20T11:58:39.238Z,12.30
2023-04-20T12:01:07.069Z,12.63
2023-04-20T12:03:34.968Z,12.68
2023-04-20T12:06:04.022Z,12.31
2023-04-20T12:08:32.125Z,12.63
2023-04-20T12:10:59.715Z,12.72
2023-04-20T12:13:27.423Z,12.90
2023-04-20T12:15:55.041Z,12.75
2023-04-20T12:18:23.193Z,12.73
2023-04-20T12:20:51.523Z,12.94
2023-04-20T12:23:20.618Z,13.12
2023-04-20T12:25:49.283Z,13.46
2023-04-20T12:28:17.099Z,13.42
2023-04-20T12:30:44.894Z,13.46
2023-04-20T12:33:12.625Z,13.60
2023-04-20T12:35:40.454Z,13.85
2023-04-20T12:38:08.037Z,13.75
2023-04-20T12:40:37.133Z,13.14
2023-04-20T12:43:04.892Z,13.22
2023-04-20T12:45:32.565Z,13.37
2023-04-20T12:48:00.859Z,13.59
2023-04-20T12:50:30.142Z,13.78
2023-04-20T12:52:58.491Z,13.85
2023-04-20T12:55:27.093Z,13.54
2023-04-20T12:57:56.039Z,13.26
2023-04-20T13:00:23.779Z,13.03
2023-04-20T13:02:51.852Z,13.03
2023-04-20T13:05:19.866Z,13.00
2023-04-20T13:07:47.463Z,13.06
2023-04-20T13:10:15.421Z,13.26
2023-04-20T13:12:43.092Z,13.32
2023-04-20T13:15:13.037Z,13.25
2023-04-20T13:17:41.262Z,13.24
2023-04-20T13:20:09.854Z,13.33
2023-04-20T13:22:50.483Z,13.28
2023-04-20T13:25:25.209Z,13.00
2023-04-20T13:27:54.695Z,13.23
2023-04-20T13:30:24.796Z,13.27
2023-04-20T13:32:52.683Z,13.26
2023-04-20T13:35:20.777Z,13.02
2023-04-20T13:37:48.733Z,12.86
2023-04-20T13:40:16.536Z,12.76
2023-04-20T13:42:44.156Z,12.73
2023-04-20T13:45:13.799Z,12.70
2023-04-20T13:47:42.814Z,12.40
2023-04-20T13:50:11.297Z,12.43
2023-04-20T13:52:39.196Z,12.43
2023-04-20T13:55:07.429Z,12.37
2023-04-20T13:57:35.151Z,12.19
2023-04-20T14:00:03.974Z,12.11
2023-04-20T14:02:31.697Z,12.27
2023-04-20T14:05:00.880Z,12.37
2023-04-20T14:07:28.543Z,12.41
2023-04-20T14:09:56.513Z,12.23
2023-04-20T14:12:24.342Z,12.28
2023-04-20T14:14:52.116Z,12.30
2023-04-20T14:17:19.981Z,12.36
2023-04-20T14:19:47.698Z,12.34
2023-04-20T14:22:16.914Z,12.37
2023-04-20T14:24:45.599Z,12.35
2023-04-20T14:27:13.373Z,11.90
2023-04-20T14:29:41.198Z,11.75
2023-04-20T14:32:09.136Z,11.76
2023-04-20T14:34:37.908Z,11.75
2023-04-20T14:37:05.643Z,11.86
2023-04-20T14:39:34.657Z,11.75
2023-04-20T14:42:02.286Z,11.78
2023-04-20T14:44:29.863Z,11.64
2023-04-20T14:46:57.980Z,11.55
2023-04-20T14:49:25.806Z,11.59
2023-04-20T14:51:53.504Z,11.69
2023-04-20T14:54:21.297Z,11.72
2023-04-20T14:56:50.630Z,11.72
2023-04-20T14:59:20.530Z,11.54
2023-04-20T15:02:01.171Z,11.58
2023-04-20T15:04:32.296Z,11.63
2023-04-20T15:07:00.351Z,11.33
2023-04-20T15:09:28.377Z,11.26
2023-04-20T15:11:59.035Z,11.37
2023-04-20T15:14:26.691Z,11.34
2023-04-20T15:16:54.988Z,11.42
2023-04-20T15:19:23.003Z,11.41
2023-04-20T15:21:50.846Z,11.44
2023-04-20T15:24:18.771Z,11.41
2023-04-20T15:26:46.601Z,11.42
2023-04-20T15:29:15.717Z,11.08
2023-04-20T15:31:45.386Z,11.03
2023-04-20T15:34:15.233Z,10.89
2023-04-20T15:36:43.481Z,10.93
2023-04-20T15:39:11.709Z,10.94
2023-04-20T15:41:39.629Z,10.53
2023-04-20T15:44:07.449Z,10.55
2023-04-20T15:46:37.084Z,10.36
2023-04-20T15:49:05.053Z,10.27
2023-04-20T15:51:32.771Z,10.42
2023-04-20T15:54:01.460Z,10.53
2023-04-20T15:56:29.914Z,10.65
2023-04-20T15:58:57.661Z,10.67
2023-04-20T16:01:25.289Z,10.76
2023-04-20T16:03:54.756Z,10.80
2023-04-20T16:06:22.686Z,10.76
2023-04-20T16:08:53.822Z,10.50
2023-04-20T16:11:23.703Z,10.64
2023-04-20T16:13:53.599Z,10.69
2023-04-20T16:16:23.741Z,10.52
2023-04-20T16:18:52.062Z,10.55
2023-04-20T16:21:22.362Z,10.49
2023-04-20T16:23:52.613Z,10.57
2023-04-20T16:26:20.850Z,10.49
2023-04-20T16:28:49.491Z,10.63
2023-04-20T16:31:19.794Z,10.70
2023-04-20T16:33:47.799Z,10.72
2023-04-20T16:36:16.414Z,10.69
2023-04-20T16:38:45.648Z,10.73
2023-04-20T16:41:13.277Z,10.74
2023-04-20T16:43:42.411Z,10.74
2023-04-20T16:46:12.815Z,10.58
2023-04-20T16:48:40.772Z,10.60
2023-04-20T16:51:08.570Z,10.66
2023-04-20T16:53:36.539Z,10.71
2023-04-20T16:56:06.129Z,10.75
2023-04-20T16:58:33.859Z,10.78
2023-04-20T17:01:01.708Z,10.75
2023-04-20T17:03:30.262Z,10.66
2023-04-20T17:05:58.242Z,10.72
2023-04-20T17:08:27.368Z,10.81
2023-04-20T17:10:55.344Z,10.88
2023-04-20T17:13:24.479Z,10.97
2023-04-20T17:15:52.974Z,10.97
2023-04-20T17:18:21.573Z,11.00
2023-04-20T17:20:49.457Z,11.02
2023-04-20T17:23:17.816Z,11.08
2023-04-20T17:25:47.332Z,11.17
2023-04-20T17:28:15.603Z,11.21
2023-04-20T17:30:45.917Z,11.23
2023-04-20T17:33:14.220Z,11.31
2023-04-20T17:35:43.478Z,11.32
2023-04-20T17:38:11.720Z,11.38
2023-04-20T17:40:39.675Z,11.43
2023-04-20T17:43:07.522Z,11.37
2023-04-20T17:45:37.395Z,11.39
2023-04-20T17:48:07.853Z,11.45
2023-04-20T17:50:35.899Z,11.43
2023-04-20T17:53:07.077Z,11.08
2023-04-20T17:55:35.365Z,10.89
2023-04-20T17:58:03.068Z,11.03
2023-04-20T18:00:31.070Z,11.14
2023-04-20T18:02:59.555Z,11.14
2023-04-20T18:05:29.233Z,11.03
2023-04-20T18:07:57.128Z,11.04
2023-04-20T18:10:24.858Z,11.06
2023-04-20T18:12:53.729Z,10.97
2023-04-20T18:15:21.812Z,10.96
2023-04-20T18:17:50.599Z,11.03
2023-04-20T18:20:19.415Z,11.05
2023-04-20T18:22:50.264Z,11.08
2023-04-20T18:25:18.846Z,11.05
2023-04-20T18:27:46.925Z,11.00
2023-04-20T18:30:15.038Z,10.92
2023-04-20T18:32:42.877Z,10.98
2023-04-20T18:35:11.896Z,11.02
2023-04-20T18:37:40.878Z,10.97
2023-04-20T18:40:11.262Z,10.90
2023-04-20T18:42:38.894Z,10.97
2023-04-20T18:45:07.617Z,10.98
2023-04-20T18:47:35.549Z,11.01
2023-04-20T18:50:03.679Z,10.94
2023-04-20T18:52:33.486Z,10.98
2023-04-20T18:55:01.213Z,11.01
2023-04-20T18:57:30.381Z,11.07
2023-04-20T18:59:58.231Z,11.11
2023-04-20T19:02:26.285Z,11.15
2023-04-20T19:04:55.556Z,11.17
2023-04-20T19:07:24.991Z,11.19
2023-04-20T19:09:52.642Z,11.07
2023-04-20T19:12:21.165Z,11.08
2023-04-20T19:14:50.325Z,11.05
2023-04-20T19:17:18.202Z,11.10
2023-04-20T19:19:46.988Z,11.13
2023-04-20T19:22:14.677Z,11.17
2023-04-20T19:24:42.582Z,11.20
2023-04-20T19:27:14.001Z,11.20
2023-04-20T19:29:46.611Z,11.22
2023-04-20T19:32:15.924Z,11.25
2023-04-20T19:34:43.844Z,11.29
2023-04-20T19:37:11.919Z,11.28
2023-04-20T19:39:40.112Z,11.28
2023-04-20T19:42:07.756Z,11.28
2023-04-20T19:44:35.797Z,11.28
2023-04-20T19:47:04.092Z,11.28
2023-04-20T19:49:33.098Z,11.31
2023-04-20T19:52:00.828Z,11.28
2023-04-20T19:54:29.772Z,11.28
2023-04-20T19:56:57.671Z,11.24
2023-04-20T19:59:25.691Z,11.23
2023-04-20T20:01:53.437Z,11.20
2023-04-20T20:04:21.357Z,11.23
2023-04-20T20:06:51.077Z,11.24
2023-04-20T20:09:21.612Z,11.25
2023-04-20T20:11:53.499Z,11.18
2023-04-20T20:14:21.645Z,11.07
2023-04-20T20:16:49.226Z,10.95
2023-04-20T20:19:18.049Z,10.90
2023-04-20T20:21:46.065Z,10.83
2023-04-20T20:24:16.018Z,10.70
2023-04-20T20:26:43.654Z,10.63
2023-04-20T20:29:11.349Z,10.62
2023-04-20T20:31:39.029Z,10.71
2023-04-20T20:34:08.983Z,10.75
2023-04-20T20:36:37.094Z,10.77
2023-04-20T20:39:06.591Z,10.79
2023-04-20T20:41:35.610Z,10.86
2023-04-20T20:44:03.672Z,10.89
2023-04-20T20:46:32.045Z,10.94
2023-04-20T20:49:00.962Z,10.91
2023-04-20T20:51:29.108Z,10.86
2023-04-20T20:53:56.733Z,10.82
2023-04-20T20:56:24.482Z,10.73
2023-04-20T20:58:55.080Z,10.71
2023-04-20T21:01:22.763Z,10.66
2023-04-20T21:03:50.723Z,10.64
2023-04-20T21:06:18.454Z,10.62
2023-04-20T21:08:46.280Z,10.65
2023-04-20T21:11:13.932Z,10.67
2023-04-20T21:13:41.769Z,10.68
2023-04-20T21:16:11.005Z,10.63
2023-04-20T21:18:38.636Z,10.59
2023-04-20T21:21:06.686Z,10.51
2023-04-20T21:23:34.433Z,10.48
2023-04-20T21:26:02.000Z,10.45
2023-04-20T21:28:29.588Z,10.41
2023-04-20T21:30:57.210Z,10.37
2023-04-20T21:33:26.200Z,10.39
2023-04-20T21:35:53.844Z,10.34
2023-04-20T21:38:21.404Z,10.26
2023-04-20T21:40:49.245Z,10.27
2023-04-20T21:43:16.821Z,10.24
2023-04-20T21:45:45.576Z,10.22
2023-04-20T21:48:13.273Z,10.18
2023-04-20T21:50:42.230Z,10.17
2023-04-20T21:53:09.964Z,10.19
2023-04-20T21:55:37.569Z,10.23
2023-04-20T21:58:05.212Z,10.22
2023-04-20T22:00:34.976Z,10.18
2023-04-20T22:03:02.687Z,10.20
2023-04-20T22:05:30.652Z,10.23
2023-04-20T22:07:59.592Z,10.23
2023-04-20T22:10:27.541Z,10.22
2023-04-20T22:12:55.283Z,10.21
2023-04-20T22:15:23.422Z,10.19
2023-04-20T22:17:51.061Z,10.16
2023-04-20T22:20:19.810Z,10.16
2023-04-20T22:22:47.894Z,10.18
2023-04-20T22:25:16.879Z,10.18
2023-04-20T22:27:44.659Z,10.24
2023-04-20T22:30:13.019Z,10.27
2023-04-20T22:32:40.914Z,10.32
2023-04-20T22:35:09.456Z,10.34
2023-04-20T22:37:37.086Z,10.36
2023-04-20T22:40:07.475Z,10.37
2023-04-20T22:42:38.945Z,10.34
2023-04-20T22:45:09.512Z,10.34
2023-04-20T22:47:37.493Z,10.33
2023-04-20T22:50:06.669Z,10.35
2023-04-20T22:52:34.818Z,10.37
2023-04-20T22:55:02.543Z,10.41
2023-04-20T22:57:30.195Z,10.43
2023-04-20T22:59:59.157Z,10.42
2023-04-20T23:02:28.192Z,10.42
2023-04-20T23:04:55.849Z,10.40
2023-04-20T23:07:23.644Z,10.39
2023-04-20T23:09:51.427Z,10.39
2023-04-20T23:12:20.656Z,10.38
2023-04-20T23:14:48.307Z,10.38
2023-04-20T23:17:17.346Z,10.39
2023-04-20T23:19:44.952Z,10.36
2023-04-20T23:22:12.719Z,10.38
2023-04-20T23:24:40.416Z,10.38
2023-04-20T23:27:08.013Z,10.41
2023-04-20T23:29:35.859Z,10.41
2023-04-20T23:32:03.873Z,10.42
2023-04-20T23:34:33.199Z,10.43
2023-04-20T23:37:00.842Z,10.42
2023-04-20T23:39:28.503Z,10.43
2023-04-20T23:41:56.345Z,10.42
2023-04-20T23:44:24.036Z,10.45
2023-04-20T23:46:51.824Z,10.45
2023-04-20T23:49:19.653Z,10.43
2023-04-20T23:51:48.729Z,10.42
2023-04-20T23:54:16.774Z,10.44
2023-04-20T23:56:44.387Z,10.44
2023-04-20T23:59:11.996Z,10.46
